sensor_id;sensor_type;location;lat;lon;timestamp;pressure;altitude;pressure_sealevel;temperature;humidity
54648;BME280;40543;53.584;9.858;2023-04-01T00:01:31;54492.38;;;-144.59;100.00
54648;BME280;40543;53.584;9.858;2023-04-01T00:03:56;54500.44;;;-144.59;100.00
54648;BME280;40543;53.584;9.858;2023-04-01T00:06:22;54500.44;;;-144.59;100.00
54648;BME280;40543;53.584;9.858;2023-04-01T00:08:47;54462.03;;;-144.59;100.00
54648;BME280;40543;53.584;9.858;2023-04-01T00:11:13;54522.69;;;-144.59;100.00
54648;BME280;40543;53.584;9.858;2023-04-01T00:13:38;54458.00;;;-144.59;100.00
54648;BME280;40543;53.584;9.858;2023-04-01T00:16:04;54504.50;;;-144.59;100.00
54648;BME280;40543;53.584;9.858;2023-04-01T00:18:30;54486.31;;;-144.59;100.00
54648;BME280;40543;53.584;9.858;2023-04-01T00:20:56;54532.81;;;-144.59;100.00
54648;BME280;40543;53.584;9.858;2023-04-01T00:23:21;54498.44;;;-144.59;100.00
54648;BME280;40543;53.584;9.858;2023-04-01T00:25:47;54510.56;;;-144.59;100.00
54648;BME280;40543;53.584;9.858;2023-04-01T00:28:17;54498.44;;;-144.59;100.00
54648;BME280;40543;53.584;9.858;2023-04-01T00:30:42;54496.41;;;-144.59;100.00
54648;BME280;40543;53.584;9.858;2023-04-01T00:33:07;54532.81;;;-144.59;100.00
54648;BME280;40543;53.584;9.858;2023-04-01T00:35:33;54480.25;;;-144.59;100.00
54648;BME280;40543;53.584;9.858;2023-04-01T00:37:58;54538.88;;;-144.59;100.00
54648;BME280;40543;53.584;9.858;2023-04-01T00:40:31;54534.81;;;-144.59;100.00
54648;BME280;40543;53.584;9.858;2023-04-01T00:42:57;54492.38;;;-144.59;100.00
54648;BME280;40543;53.584;9.858;2023-04-01T00:45:36;54538.88;;;-144.59;100.00
54648;BME280;40543;53.584;9.858;2023-04-01T00:48:06;54484.28;;;-144.59;100.00
54648;BME280;40543;53.584;9.858;2023-04-01T00:50:33;54516.63;;;-144.59;100.00
54648;BME280;40543;53.584;9.858;2023-04-01T00:53:00;54526.72;;;-144.59;100.00
54648;BME280;40543;53.584;9.858;2023-04-01T00:55:27;54504.50;;;-144.59;100.00
54648;BME280;40543;53.584;9.858;2023-04-01T00:57:53;54522.69;;;-144.59;100.00
54648;BME280;40543;53.584;9.858;2023-04-01T01:00:21;54526.72;;;-144.59;100.00
54648;BME280;40543;53.584;9.858;2023-04-01T01:02:47;54496.41;;;-144.59;100.00
54648;BME280;40543;53.584;9.858;2023-04-01T01:05:16;54508.53;;;-144.59;100.00
54648;BME280;40543;53.584;9.858;2023-04-01T01:08:13;54524.72;;;-144.59;100.00
54648;BME280;40543;53.584;9.858;2023-04-01T01:10:43;54508.53;;;-144.59;100.00
54648;BME280;40543;53.584;9.858;2023-04-01T01:13:17;54464.06;;;-144.59;100.00
54648;BME280;40543;53.584;9.858;2023-04-01T01:15:58;54496.41;;;-144.59;100.00
54648;BME280;40543;53.584;9.858;2023-04-01T01:18:33;54516.63;;;-144.59;100.00
54648;BME280;40543;53.584;9.858;2023-04-01T01:21:27;54472.16;;;-144.59;100.00
54648;BME280;40543;53.584;9.858;2023-04-01T01:34:22;54486.31;;;-144.59;100.00
54648;BME280;40543;53.584;9.858;2023-04-01T01:36:53;54514.59;;;-144.59;100.00
54648;BME280;40543;53.584;9.858;2023-04-01T01:39:20;54472.16;;;-144.59;100.00
54648;BME280;40543;53.584;9.858;2023-04-01T01:41:52;54524.72;;;-144.59;100.00
54648;BME280;40543;53.584;9.858;2023-04-01T01:44:19;54504.50;;;-144.59;100.00
54648;BME280;40543;53.584;9.858;2023-04-01T01:46:47;54494.38;;;-144.59;100.00
54648;BME280;40543;53.584;9.858;2023-04-01T01:49:14;54472.16;;;-144.59;100.00
54648;BME280;40543;53.584;9.858;2023-04-01T01:51:41;54500.44;;;-144.59;100.00
54648;BME280;40543;53.584;9.858;2023-04-01T01:54:12;54496.41;;;-144.59;100.00
54648;BME280;40543;53.584;9.858;2023-04-01T01:56:38;54496.41;;;-144.59;100.00
54648;BME280;40543;53.584;9.858;2023-04-01T01:59:08;54557.06;;;-144.59;100.00
54648;BME280;40543;53.584;9.858;2023-04-01T02:01:38;54561.09;;;-144.59;100.00
54648;BME280;40543;53.584;9.858;2023-04-01T02:04:05;54551.00;;;-144.59;100.00
54648;BME280;40543;53.584;9.858;2023-04-01T02:06:34;54468.09;;;-144.59;100.00
54648;BME280;40543;53.584;9.858;2023-04-01T02:09:04;54490.34;;;-144.59;100.00
54648;BME280;40543;53.584;9.858;2023-04-01T02:11:36;54520.66;;;-144.59;100.00
54648;BME280;40543;53.584;9.858;2023-04-01T02:14:07;54468.09;;;-144.59;100.00
54648;BME280;40543;53.584;9.858;2023-04-01T02:17:09;54520.66;;;-144.59;100.00
54648;BME280;40543;53.584;9.858;2023-04-01T02:19:59;54508.53;;;-144.59;100.00
54648;BME280;40543;53.584;9.858;2023-04-01T02:22:28;54492.38;;;-144.59;100.00
54648;BME280;40543;53.584;9.858;2023-04-01T02:24:58;54492.38;;;-144.59;100.00
54648;BME280;40543;53.584;9.858;2023-04-01T02:27:25;54516.63;;;-144.59;100.00
54648;BME280;40543;53.584;9.858;2023-04-01T02:29:51;54516.63;;;-144.59;100.00
54648;BME280;40543;53.584;9.858;2023-04-01T02:32:18;54480.25;;;-144.59;100.00
54648;BME280;40543;53.584;9.858;2023-04-01T02:34:44;54504.50;;;-144.59;100.00
54648;BME280;40543;53.584;9.858;2023-04-01T02:37:11;54496.41;;;-144.59;100.00
54648;BME280;40543;53.584;9.858;2023-04-01T02:39:37;54500.44;;;-144.59;100.00
54648;BME280;40543;53.584;9.858;2023-04-01T02:42:02;54528.75;;;-144.59;100.00
54648;BME280;40543;53.584;9.858;2023-04-01T02:44:28;54514.59;;;-144.59;100.00
54648;BME280;40543;53.584;9.858;2023-04-01T02:46:53;54496.41;;;-144.59;100.00
54648;BME280;40543;53.584;9.858;2023-04-01T02:49:18;54532.81;;;-144.59;100.00
54648;BME280;40543;53.584;9.858;2023-04-01T02:51:44;54508.53;;;-144.59;100.00
54648;BME280;40543;53.584;9.858;2023-04-01T02:54:09;54514.59;;;-144.59;100.00
54648;BME280;40543;53.584;9.858;2023-04-01T02:56:35;54528.75;;;-144.59;100.00
54648;BME280;40543;53.584;9.858;2023-04-01T02:59:00;54488.31;;;-144.59;100.00
54648;BME280;40543;53.584;9.858;2023-04-01T03:01:25;54534.81;;;-144.59;100.00
54648;BME280;40543;53.584;9.858;2023-04-01T03:03:51;54508.53;;;-144.59;100.00
54648;BME280;40543;53.584;9.858;2023-04-01T03:06:17;54474.16;;;-144.59;100.00
54648;BME280;40543;53.584;9.858;2023-04-01T03:08:43;54534.81;;;-144.59;100.00
54648;BME280;40543;53.584;9.858;2023-04-01T03:11:09;54488.31;;;-144.59;100.00
54648;BME280;40543;53.584;9.858;2023-04-01T03:13:35;54544.94;;;-144.59;100.00
54648;BME280;40543;53.584;9.858;2023-04-01T03:16:01;54510.56;;;-144.59;100.00
54648;BME280;40543;53.584;9.858;2023-04-01T03:18:26;54540.88;;;-144.59;100.00
54648;BME280;40543;53.584;9.858;2023-04-01T03:20:51;54557.06;;;-144.59;100.00
54648;BME280;40543;53.584;9.858;2023-04-01T03:23:17;54500.44;;;-144.59;100.00
54648;BME280;40543;53.584;9.858;2023-04-01T03:25:44;54520.66;;;-144.59;100.00
54648;BME280;40543;53.584;9.858;2023-04-01T03:28:10;54480.25;;;-144.59;100.00
54648;BME280;40543;53.584;9.858;2023-04-01T03:30:35;54544.94;;;-144.59;100.00
54648;BME280;40543;53.584;9.858;2023-04-01T03:33:01;54504.50;;;-144.59;100.00
54648;BME280;40543;53.584;9.858;2023-04-01T03:35:27;54528.75;;;-144.59;100.00
54648;BME280;40543;53.584;9.858;2023-04-01T03:37:53;54526.72;;;-144.59;100.00
54648;BME280;40543;53.584;9.858;2023-04-01T03:40:19;54464.06;;;-144.59;100.00
54648;BME280;40543;53.584;9.858;2023-04-01T03:42:45;54528.75;;;-144.59;100.00
54648;BME280;40543;53.584;9.858;2023-04-01T03:45:11;54488.31;;;-144.59;100.00
54648;BME280;40543;53.584;9.858;2023-04-01T03:47:40;54532.81;;;-144.59;100.00
54648;BME280;40543;53.584;9.858;2023-04-01T03:50:07;54492.38;;;-144.59;100.00
54648;BME280;40543;53.584;9.858;2023-04-01T03:52:33;54488.31;;;-144.59;100.00
54648;BME280;40543;53.584;9.858;2023-04-01T03:54:59;54518.66;;;-144.59;100.00
54648;BME280;40543;53.584;9.858;2023-04-01T03:57:25;54464.06;;;-144.59;100.00
54648;BME280;40543;53.584;9.858;2023-04-01T03:59:51;54522.69;;;-144.59;100.00
54648;BME280;40543;53.584;9.858;2023-04-01T04:02:16;54540.88;;;-144.59;100.00
54648;BME280;40543;53.584;9.858;2023-04-01T04:04:42;54484.28;;;-144.59;100.00
54648;BME280;40543;53.584;9.858;2023-04-01T04:07:07;54504.50;;;-144.59;100.00
54648;BME280;40543;53.584;9.858;2023-04-01T04:09:33;54502.47;;;-144.59;100.00
54648;BME280;40543;53.584;9.858;2023-04-01T04:11:58;54502.47;;;-144.59;100.00
54648;BME280;40543;53.584;9.858;2023-04-01T04:14:24;54546.94;;;-144.59;100.00
54648;BME280;40543;53.584;9.858;2023-04-01T04:16:49;54536.84;;;-144.59;100.00
54648;BME280;40543;53.584;9.858;2023-04-01T04:19:15;54526.72;;;-144.59;100.00
54648;BME280;40543;53.584;9.858;2023-04-01T04:21:41;54500.44;;;-144.59;100.00
54648;BME280;40543;53.584;9.858;2023-04-01T04:24:06;54488.31;;;-144.59;100.00
54648;BME280;40543;53.584;9.858;2023-04-01T04:26:32;54498.44;;;-144.59;100.00
54648;BME280;40543;53.584;9.858;2023-04-01T04:28:57;54530.78;;;-144.59;100.00
54648;BME280;40543;53.584;9.858;2023-04-01T04:31:24;54496.41;;;-144.59;100.00
54648;BME280;40543;53.584;9.858;2023-04-01T04:33:50;54490.34;;;-144.59;100.00
54648;BME280;40543;53.584;9.858;2023-04-01T04:36:16;54520.66;;;-144.59;100.00
54648;BME280;40543;53.584;9.858;2023-04-01T04:38:42;54518.66;;;-144.59;100.00
54648;BME280;40543;53.584;9.858;2023-04-01T04:41:11;54508.53;;;-144.59;100.00
54648;BME280;40543;53.584;9.858;2023-04-01T04:43:38;54532.81;;;-144.59;100.00
54648;BME280;40543;53.584;9.858;2023-04-01T04:46:10;54498.44;;;-144.59;100.00
54648;BME280;40543;53.584;9.858;2023-04-01T04:48:35;54504.50;;;-144.59;100.00
54648;BME280;40543;53.584;9.858;2023-04-01T04:51:01;54500.44;;;-144.59;100.00
54648;BME280;40543;53.584;9.858;2023-04-01T04:53:27;54486.31;;;-144.59;100.00
54648;BME280;40543;53.584;9.858;2023-04-01T04:55:53;54536.84;;;-144.59;100.00
54648;BME280;40543;53.584;9.858;2023-04-01T04:58:19;54524.72;;;-144.59;100.00
54648;BME280;40543;53.584;9.858;2023-04-01T05:00:45;54496.41;;;-144.59;100.00
54648;BME280;40543;53.584;9.858;2023-04-01T05:03:10;54528.75;;;-144.59;100.00
54648;BME280;40543;53.584;9.858;2023-04-01T05:05:36;54526.72;;;-144.59;100.00
54648;BME280;40543;53.584;9.858;2023-04-01T05:08:02;54524.72;;;-144.59;100.00
54648;BME280;40543;53.584;9.858;2023-04-01T05:10:28;54508.53;;;-144.59;100.00
54648;BME280;40543;53.584;9.858;2023-04-01T05:12:53;54534.81;;;-144.59;100.00
54648;BME280;40543;53.584;9.858;2023-04-01T05:15:18;54514.59;;;-144.59;100.00
54648;BME280;40543;53.584;9.858;2023-04-01T05:17:44;54520.66;;;-144.59;100.00
54648;BME280;40543;53.584;9.858;2023-04-01T05:20:12;54520.66;;;-144.59;100.00
54648;BME280;40543;53.584;9.858;2023-04-01T05:22:38;54540.88;;;-144.59;100.00
54648;BME280;40543;53.584;9.858;2023-04-01T05:25:04;54526.72;;;-144.59;100.00
54648;BME280;40543;53.584;9.858;2023-04-01T05:27:29;54538.88;;;-144.59;100.00
54648;BME280;40543;53.584;9.858;2023-04-01T05:29:54;54520.66;;;-144.59;100.00
54648;BME280;40543;53.584;9.858;2023-04-01T05:32:21;54508.53;;;-144.59;100.00
54648;BME280;40543;53.584;9.858;2023-04-01T05:34:46;54540.88;;;-144.59;100.00
54648;BME280;40543;53.584;9.858;2023-04-01T05:37:11;54526.72;;;-144.59;100.00
54648;BME280;40543;53.584;9.858;2023-04-01T05:39:37;54534.81;;;-144.59;100.00
54648;BME280;40543;53.584;9.858;2023-04-01T05:42:05;54557.06;;;-144.59;100.00
54648;BME280;40543;53.584;9.858;2023-04-01T05:44:30;54528.75;;;-144.59;100.00
54648;BME280;40543;53.584;9.858;2023-04-01T05:46:56;54508.53;;;-144.59;100.00
54648;BME280;40543;53.584;9.858;2023-04-01T05:49:21;54538.88;;;-144.59;100.00
54648;BME280;40543;53.584;9.858;2023-04-01T05:51:47;54548.97;;;-144.59;100.00
54648;BME280;40543;53.584;9.858;2023-04-01T05:54:12;54544.94;;;-144.59;100.00
54648;BME280;40543;53.584;9.858;2023-04-01T05:56:39;54548.97;;;-144.59;100.00
54648;BME280;40543;53.584;9.858;2023-04-01T05:59:04;54573.22;;;-144.59;100.00
54648;BME280;40543;53.584;9.858;2023-04-01T06:01:30;54561.09;;;-144.59;100.00
54648;BME280;40543;53.584;9.858;2023-04-01T06:03:55;54557.06;;;-144.59;100.00
54648;BME280;40543;53.584;9.858;2023-04-01T06:06:29;54573.22;;;-144.59;100.00
54648;BME280;40543;53.584;9.858;2023-04-01T06:08:57;54532.81;;;-144.59;100.00
54648;BME280;40543;53.584;9.858;2023-04-01T06:14:31;54524.72;;;-144.59;100.00
54648;BME280;40543;53.584;9.858;2023-04-01T06:20:25;54488.31;;;-144.59;100.00
54648;BME280;40543;53.584;9.858;2023-04-01T06:23:04;54546.94;;;-144.59;100.00
54648;BME280;40543;53.584;9.858;2023-04-01T06:25:51;54532.81;;;-144.59;100.00
54648;BME280;40543;53.584;9.858;2023-04-01T06:28:35;54528.75;;;-144.59;100.00
54648;BME280;40543;53.584;9.858;2023-04-01T06:34:18;54561.09;;;-144.59;100.00
54648;BME280;40543;53.584;9.858;2023-04-01T06:36:52;54532.81;;;-144.59;100.00
54648;BME280;40543;53.584;9.858;2023-04-01T06:39:30;54579.31;;;-144.59;100.00
54648;BME280;40543;53.584;9.858;2023-04-01T06:45:16;54561.09;;;-144.59;100.00
54648;BME280;40543;53.584;9.858;2023-04-01T06:55:57;54520.66;;;-144.59;100.00
54648;BME280;40543;53.584;9.858;2023-04-01T07:00:53;54546.94;;;-144.59;100.00
54648;BME280;40543;53.584;9.858;2023-04-01T07:03:34;54544.94;;;-144.59;100.00
54648;BME280;40543;53.584;9.858;2023-04-01T07:06:05;54538.88;;;-144.59;100.00
54648;BME280;40543;53.584;9.858;2023-04-01T07:08:36;54532.81;;;-144.59;100.00
54648;BME280;40543;53.584;9.858;2023-04-01T07:11:09;54526.72;;;-144.59;100.00
54648;BME280;40543;53.584;9.858;2023-04-01T07:13:53;54557.06;;;-144.59;100.00
54648;BME280;40543;53.584;9.858;2023-04-01T07:16:29;54589.41;;;-144.59;100.00
54648;BME280;40543;53.584;9.858;2023-04-01T07:19:06;54546.94;;;-144.59;100.00
54648;BME280;40543;53.584;9.858;2023-04-01T07:21:38;54553.03;;;-144.59;100.00
54648;BME280;40543;53.584;9.858;2023-04-01T07:24:10;54573.22;;;-144.59;100.00
54648;BME280;40543;53.584;9.858;2023-04-01T07:26:38;54575.25;;;-144.59;100.00
54648;BME280;40543;53.584;9.858;2023-04-01T07:29:09;54575.25;;;-144.59;100.00
54648;BME280;40543;53.584;9.858;2023-04-01T07:37:11;54534.81;;;-144.59;100.00
54648;BME280;40543;53.584;9.858;2023-04-01T07:55:18;54569.19;;;-144.59;100.00
54648;BME280;40543;53.584;9.858;2023-04-01T07:58:29;54518.66;;;-144.59;100.00
54648;BME280;40543;53.584;9.858;2023-04-01T08:01:02;54563.13;;;-144.59;100.00
54648;BME280;40543;53.584;9.858;2023-04-01T08:06:31;54512.59;;;-144.59;100.00
54648;BME280;40543;53.584;9.858;2023-04-01T08:17:21;54551.00;;;-144.59;100.00
54648;BME280;40543;53.584;9.858;2023-04-01T08:22:42;54526.72;;;-144.59;100.00
54648;BME280;40543;53.584;9.858;2023-04-01T08:25:22;54538.88;;;-144.59;100.00
54648;BME280;40543;53.584;9.858;2023-04-01T08:28:16;54512.59;;;-144.59;100.00
54648;BME280;40543;53.584;9.858;2023-04-01T08:30:58;54544.94;;;-144.59;100.00
54648;BME280;40543;53.584;9.858;2023-04-01T08:33:31;54542.91;;;-144.59;100.00
54648;BME280;40543;53.584;9.858;2023-04-01T08:36:19;54544.94;;;-144.59;100.00
54648;BME280;40543;53.584;9.858;2023-04-01T08:38:55;54557.06;;;-144.59;100.00
54648;BME280;40543;53.584;9.858;2023-04-01T08:47:05;54522.69;;;-144.59;100.00
54648;BME280;40543;53.584;9.858;2023-04-01T08:50:06;54548.97;;;-144.59;100.00
54648;BME280;40543;53.584;9.858;2023-04-01T08:55:27;54504.50;;;-144.59;100.00
54648;BME280;40543;53.584;9.858;2023-04-01T09:01:13;54496.41;;;-144.59;100.00
54648;BME280;40543;53.584;9.858;2023-04-01T09:04:05;54480.25;;;-144.59;100.00
54648;BME280;40543;53.584;9.858;2023-04-01T09:27:04;54498.44;;;-144.59;100.00
54648;BME280;40543;53.584;9.858;2023-04-01T09:38:21;54504.50;;;-144.59;100.00
54648;BME280;40543;53.584;9.858;2023-04-01T09:49:21;54500.44;;;-144.59;100.00
54648;BME280;40543;53.584;9.858;2023-04-01T09:52:07;54482.25;;;-144.59;100.00
54648;BME280;40543;53.584;9.858;2023-04-01T10:00:53;54528.75;;;-144.59;100.00
54648;BME280;40543;53.584;9.858;2023-04-01T10:15:22;54520.66;;;-144.59;100.00
54648;BME280;40543;53.584;9.858;2023-04-01T10:18:21;54524.72;;;-144.59;100.00
54648;BME280;40543;53.584;9.858;2023-04-01T10:24:23;54464.06;;;-144.59;100.00
54648;BME280;40543;53.584;9.858;2023-04-01T10:27:10;54516.63;;;-144.59;100.00
54648;BME280;40543;53.584;9.858;2023-04-01T10:30:05;54522.69;;;-144.59;100.00
54648;BME280;40543;53.584;9.858;2023-04-01T10:35:41;54536.84;;;-144.59;100.00
54648;BME280;40543;53.584;9.858;2023-04-01T10:46:36;54520.66;;;-144.59;100.00
54648;BME280;40543;53.584;9.858;2023-04-01T10:49:35;54530.78;;;-144.59;100.00
54648;BME280;40543;53.584;9.858;2023-04-01T11:04:03;54520.66;;;-144.59;100.00
54648;BME280;40543;53.584;9.858;2023-04-01T11:12:44;54524.72;;;-144.59;100.00
54648;BME280;40543;53.584;9.858;2023-04-01T11:18:41;54518.66;;;-144.59;100.00
54648;BME280;40543;53.584;9.858;2023-04-01T11:24:30;54510.56;;;-144.59;100.00
54648;BME280;40543;53.584;9.858;2023-04-01T11:38:14;54536.84;;;-144.59;100.00
54648;BME280;40543;53.584;9.858;2023-04-01T11:43:37;54534.81;;;-144.59;100.00
54648;BME280;40543;53.584;9.858;2023-04-01T11:46:19;54536.84;;;-144.59;100.00
54648;BME280;40543;53.584;9.858;2023-04-01T11:49:16;54492.38;;;-144.59;100.00
54648;BME280;40543;53.584;9.858;2023-04-01T11:52:17;54504.50;;;-144.59;100.00
54648;BME280;40543;53.584;9.858;2023-04-01T11:55:15;54496.41;;;-144.59;100.00
54648;BME280;40543;53.584;9.858;2023-04-01T11:58:12;54520.66;;;-144.59;100.00
54648;BME280;40543;53.584;9.858;2023-04-01T12:03:56;54528.75;;;-144.59;100.00
54648;BME280;40543;53.584;9.858;2023-04-01T12:06:48;54538.88;;;-144.59;100.00
54648;BME280;40543;53.584;9.858;2023-04-01T12:14:50;54540.88;;;-144.59;100.00
54648;BME280;40543;53.584;9.858;2023-04-01T12:55:25;54496.41;;;-144.59;100.00
54648;BME280;40543;53.584;9.858;2023-04-01T12:58:29;54488.31;;;-144.59;100.00
54648;BME280;40543;53.584;9.858;2023-04-01T13:01:15;54567.16;;;-144.59;100.00
54648;BME280;40543;53.584;9.858;2023-04-01T13:09:50;54526.72;;;-144.59;100.00
54648;BME280;40543;53.584;9.858;2023-04-01T13:12:32;54536.84;;;-144.59;100.00
54648;BME280;40543;53.584;9.858;2023-04-01T13:15:12;54542.91;;;-144.59;100.00
54648;BME280;40543;53.584;9.858;2023-04-01T13:20:36;54532.81;;;-144.59;100.00
54648;BME280;40543;53.584;9.858;2023-04-01T13:28:32;54542.91;;;-144.59;100.00
54648;BME280;40543;53.584;9.858;2023-04-01T13:40:13;54534.81;;;-144.59;100.00
54648;BME280;40543;53.584;9.858;2023-04-01T13:45:35;54548.97;;;-144.59;100.00
54648;BME280;40543;53.584;9.858;2023-04-01T13:59:31;54571.22;;;-144.59;100.00
54648;BME280;40543;53.584;9.858;2023-04-01T14:04:47;54510.56;;;-144.59;100.00
54648;BME280;40543;53.584;9.858;2023-04-01T14:20:38;54528.75;;;-144.59;100.00
54648;BME280;40543;53.584;9.858;2023-04-01T14:29:02;54544.94;;;-144.59;100.00
54648;BME280;40543;53.584;9.858;2023-04-01T14:31:54;54512.59;;;-144.59;100.00
54648;BME280;40543;53.584;9.858;2023-04-01T14:45:02;54542.91;;;-144.59;100.00
54648;BME280;40543;53.584;9.858;2023-04-01T14:50:31;54520.66;;;-144.59;100.00
54648;BME280;40543;53.584;9.858;2023-04-01T14:55:55;54551.00;;;-144.59;100.00
54648;BME280;40543;53.584;9.858;2023-04-01T14:58:23;54587.38;;;-144.59;100.00
54648;BME280;40543;53.584;9.858;2023-04-01T15:03:55;54546.94;;;-144.59;100.00
54648;BME280;40543;53.584;9.858;2023-04-01T15:12:16;54571.22;;;-144.59;100.00
54648;BME280;40543;53.584;9.858;2023-04-01T15:29:11;54605.59;;;-144.59;100.00
54648;BME280;40543;53.584;9.858;2023-04-01T15:31:54;54498.44;;;-144.59;100.00
54648;BME280;40543;53.584;9.858;2023-04-01T15:34:43;54548.97;;;-144.59;100.00
54648;BME280;40543;53.584;9.858;2023-04-01T15:42:56;54548.97;;;-144.59;100.00
54648;BME280;40543;53.584;9.858;2023-04-01T15:51:02;54528.75;;;-144.59;100.00
54648;BME280;40543;53.584;9.858;2023-04-01T15:59:41;54557.06;;;-144.59;100.00
54648;BME280;40543;53.584;9.858;2023-04-01T16:04:58;54561.09;;;-144.59;100.00
54648;BME280;40543;53.584;9.858;2023-04-01T16:12:53;54540.88;;;-144.59;100.00
54648;BME280;40543;53.584;9.858;2023-04-01T16:23:49;54559.09;;;-144.59;100.00
54648;BME280;40543;53.584;9.858;2023-04-01T16:26:24;54559.09;;;-144.59;100.00
54648;BME280;40543;53.584;9.858;2023-04-01T16:29:00;54581.31;;;-144.59;100.00
54648;BME280;40543;53.584;9.858;2023-04-01T16:34:20;54587.38;;;-144.59;100.00
54648;BME280;40543;53.584;9.858;2023-04-01T16:36:54;54567.16;;;-144.59;100.00
54648;BME280;40543;53.584;9.858;2023-04-01T16:47:48;54561.09;;;-144.59;100.00
54648;BME280;40543;53.584;9.858;2023-04-01T16:50:20;54621.75;;;-144.59;100.00
54648;BME280;40543;53.584;9.858;2023-04-01T16:55:34;54601.53;;;-144.59;100.00
54648;BME280;40543;53.584;9.858;2023-04-01T16:58:01;54561.09;;;-144.59;100.00
54648;BME280;40543;53.584;9.858;2023-04-01T17:00:38;54585.38;;;-144.59;100.00
54648;BME280;40543;53.584;9.858;2023-04-01T17:06:02;54555.03;;;-144.59;100.00
54648;BME280;40543;53.584;9.858;2023-04-01T17:11:26;54544.94;;;-144.59;100.00
54648;BME280;40543;53.584;9.858;2023-04-01T17:14:14;54603.56;;;-144.59;100.00
54648;BME280;40543;53.584;9.858;2023-04-01T17:16:56;54579.31;;;-144.59;100.00
54648;BME280;40543;53.584;9.858;2023-04-01T17:19:38;54553.03;;;-144.59;100.00
54648;BME280;40543;53.584;9.858;2023-04-01T17:35:16;54544.94;;;-144.59;100.00
54648;BME280;40543;53.584;9.858;2023-04-01T17:43:39;54589.41;;;-144.59;100.00
54648;BME280;40543;53.584;9.858;2023-04-01T17:52:03;54581.31;;;-144.59;100.00
54648;BME280;40543;53.584;9.858;2023-04-01T18:00:26;54561.09;;;-144.59;100.00
54648;BME280;40543;53.584;9.858;2023-04-01T18:06:10;54573.22;;;-144.59;100.00
54648;BME280;40543;53.584;9.858;2023-04-01T18:08:58;54633.88;;;-144.59;100.00
54648;BME280;40543;53.584;9.858;2023-04-01T18:16:59;54609.63;;;-144.59;100.00
54648;BME280;40543;53.584;9.858;2023-04-01T18:22:21;54589.41;;;-144.59;100.00
54648;BME280;40543;53.584;9.858;2023-04-01T18:27:41;54583.34;;;-144.59;100.00
54648;BME280;40543;53.584;9.858;2023-04-01T18:30:18;54557.06;;;-144.59;100.00
54648;BME280;40543;53.584;9.858;2023-04-01T18:35:47;54597.50;;;-144.59;100.00
54648;BME280;40543;53.584;9.858;2023-04-01T18:38:28;54597.50;;;-144.59;100.00
54648;BME280;40543;53.584;9.858;2023-04-01T18:47:14;54569.19;;;-144.59;100.00
54648;BME280;40543;53.584;9.858;2023-04-01T18:50:14;54593.44;;;-144.59;100.00
54648;BME280;40543;53.584;9.858;2023-04-01T18:52:44;54585.38;;;-144.59;100.00
54648;BME280;40543;53.584;9.858;2023-04-01T18:55:29;54565.16;;;-144.59;100.00
54648;BME280;40543;53.584;9.858;2023-04-01T18:58:11;54627.81;;;-144.59;100.00
54648;BME280;40543;53.584;9.858;2023-04-01T19:00:42;54559.09;;;-144.59;100.00
54648;BME280;40543;53.584;9.858;2023-04-01T19:05:52;54615.69;;;-144.59;100.00
54648;BME280;40543;53.584;9.858;2023-04-01T19:08:33;54548.97;;;-144.59;100.00
54648;BME280;40543;53.584;9.858;2023-04-01T19:11:19;54621.75;;;-144.59;100.00
54648;BME280;40543;53.584;9.858;2023-04-01T19:21:47;54587.38;;;-144.59;100.00
54648;BME280;40543;53.584;9.858;2023-04-01T19:24:25;54591.44;;;-144.59;100.00
54648;BME280;40543;53.584;9.858;2023-04-01T19:27:26;54555.03;;;-144.59;100.00
54648;BME280;40543;53.584;9.858;2023-04-01T19:30:22;54577.28;;;-144.59;100.00
54648;BME280;40543;53.584;9.858;2023-04-01T19:38:37;54607.59;;;-144.59;100.00
54648;BME280;40543;53.584;9.858;2023-04-01T19:41:31;54575.25;;;-144.59;100.00
54648;BME280;40543;53.584;9.858;2023-04-01T19:46:51;54546.94;;;-144.59;100.00
54648;BME280;40543;53.584;9.858;2023-04-01T19:52:26;54573.22;;;-144.59;100.00
54648;BME280;40543;53.584;9.858;2023-04-01T20:03:01;54593.44;;;-144.59;100.00
54648;BME280;40543;53.584;9.858;2023-04-01T20:08:32;54609.63;;;-144.59;100.00
54648;BME280;40543;53.584;9.858;2023-04-01T20:11:16;54633.88;;;-144.59;100.00
54648;BME280;40543;53.584;9.858;2023-04-01T20:14:15;54587.38;;;-144.59;100.00
54648;BME280;40543;53.584;9.858;2023-04-01T20:19:12;54615.69;;;-144.59;100.00
54648;BME280;40543;53.584;9.858;2023-04-01T20:21:43;54548.97;;;-144.59;100.00
54648;BME280;40543;53.584;9.858;2023-04-01T20:26:41;54597.50;;;-144.59;100.00
54648;BME280;40543;53.584;9.858;2023-04-01T20:35:12;54623.78;;;-144.59;100.00
54648;BME280;40543;53.584;9.858;2023-04-01T20:37:52;54619.72;;;-144.59;100.00
54648;BME280;40543;53.584;9.858;2023-04-01T20:40:29;54605.59;;;-144.59;100.00
54648;BME280;40543;53.584;9.858;2023-04-01T20:51:32;54587.38;;;-144.59;100.00
54648;BME280;40543;53.584;9.858;2023-04-01T20:54:11;54593.44;;;-144.59;100.00
54648;BME280;40543;53.584;9.858;2023-04-01T20:57:00;54589.41;;;-144.59;100.00
54648;BME280;40543;53.584;9.858;2023-04-01T21:02:20;54551.00;;;-144.59;100.00
54648;BME280;40543;53.584;9.858;2023-04-01T21:05:28;54581.31;;;-144.59;100.00
54648;BME280;40543;53.584;9.858;2023-04-01T21:08:06;54559.09;;;-144.59;100.00
54648;BME280;40543;53.584;9.858;2023-04-01T21:10:41;54575.25;;;-144.59;100.00
54648;BME280;40543;53.584;9.858;2023-04-01T21:21:30;54607.59;;;-144.59;100.00
54648;BME280;40543;53.584;9.858;2023-04-01T21:29:51;54585.38;;;-144.59;100.00
54648;BME280;40543;53.584;9.858;2023-04-01T21:35:34;54587.38;;;-144.59;100.00